Time;durP1;ratioP1;P1;durP2;ratioP2;P2;SDS_P1;SDS_P2;PMS_P1;PMS_P2;Temp;Humidity;BMP_temperature;BMP_pressure;BME280_temperature;BME280_humidity;BME280_pressure;Samples;Min_cycle;Max_cycle;Signal;HPM_P1;HPM_P2
2022/02/05 00:01:39;;;;;;;2.00;1.33;;;7.10;99.90;;;;;;20708567;28;20030;-76
2022/02/05 00:42:39;;;;;;;1.27;0.40;;;6.00;99.90;;;;;;20751351;28;20108;-76
2022/02/05 00:52:41;;;;;;;0.30;0.30;;;5.60;99.90;;;;;;20738081;28;20030;-78
2022/02/05 01:02:42;;;;;;;3.92;0.40;;;5.50;99.90;;;;;;20732055;28;20038;-77
2022/02/05 01:12:49;;;;;;;0.55;0.50;;;5.40;99.90;;;;;;20749749;28;20030;-77
2022/02/05 01:22:52;;;;;;;0.47;0.47;;;5.40;99.90;;;;;;20749913;28;20034;-77
2022/02/05 01:54:02;;;;;;;0.90;0.55;;;4.60;99.90;;;;;;20747509;28;20041;-78
2022/02/05 02:34:48;;;;;;;0.60;0.57;;;3.80;99.90;;;;;;20744699;28;20034;-77
2022/02/05 02:44:49;;;;;;;1.40;0.80;;;3.70;99.90;;;;;;20744082;28;20038;-77
2022/02/05 03:05:10;;;;;;;1.35;1.00;;;3.60;99.90;;;;;;20759122;28;19913;-77
2022/02/05 03:15:19;;;;;;;1.17;0.80;;;3.40;99.90;;;;;;20758994;28;20081;-77
2022/02/05 03:25:20;;;;;;;1.35;0.90;;;3.30;99.90;;;;;;20757691;28;20084;-78
2022/02/05 03:35:20;;;;;;;;;;;3.30;99.90;;;;;;20743937;28;20120;-77
2022/02/05 03:45:21;;;;;;;2.65;1.10;;;3.20;99.90;;;;;;20756251;28;19939;-78
2022/02/05 03:55:22;;;;;;;;;;;3.10;99.90;;;;;;20755397;28;20060;-78
2022/02/05 04:05:23;;;;;;;2.20;1.00;;;3.00;99.90;;;;;;20754395;28;20295;-77
2022/02/05 04:25:43;;;;;;;5.38;1.58;;;2.60;99.90;;;;;;20753719;28;20038;-78
2022/02/05 04:35:45;;;;;;;1.70;1.23;;;2.40;99.90;;;;;;20752285;28;20068;-77
2022/02/05 04:46:34;;;;;;;7.32;1.50;;;2.00;99.90;;;;;;20752031;28;20113;-77
2022/02/05 05:26:37;;;;;;;4.22;1.80;;;1.00;99.90;;;;;;20749774;28;20041;-76
2022/02/05 05:36:38;;;;;;;4.63;1.90;;;0.70;99.90;;;;;;20802195;28;20080;-77
2022/02/05 05:57:03;;;;;;;3.75;1.60;;;0.30;99.90;;;;;;20799030;28;20088;-76
2022/02/05 06:07:04;;;;;;;2.55;1.30;;;0.30;99.90;;;;;;20824008;28;20171;-77
2022/02/05 06:17:09;;;;;;;6.80;2.10;;;0.40;99.90;;;;;;20837671;28;20041;-78
2022/02/05 06:27:09;;;;;;;3.13;1.80;;;0.10;99.90;;;;;;20848143;28;20049;-77
2022/02/05 06:37:10;;;;;;;2.92;1.58;;;-0.30;99.90;;;;;;20817639;28;20034;-77
2022/02/05 06:47:11;;;;;;;5.05;2.03;;;-0.20;99.90;;;;;;20830939;28;20030;-77
2022/02/05 06:57:12;;;;;;;7.50;3.10;;;-0.30;99.90;;;;;;20810063;28;20038;-76
2022/02/05 07:07:13;;;;;;;6.55;2.40;;;0.10;99.90;;;;;;20812789;28;20108;-75
2022/02/05 07:17:22;;;;;;;7.07;2.17;;;-0.10;99.90;;;;;;20827932;28;20033;-76
2022/02/05 07:37:42;;;;;;;3.78;1.80;;;1.90;99.90;;;;;;20823181;28;20029;-74
2022/02/05 07:47:43;;;;;;;39.30;7.15;;;2.90;99.90;;;;;;20835911;28;20029;-74
2022/02/05 07:57:44;;;;;;;4.80;2.35;;;3.00;99.90;;;;;;20830229;28;20048;-75
2022/02/05 08:07:44;;;;;;;5.05;2.20;;;2.10;99.90;;;;;;20791861;28;20026;-75
2022/02/05 08:17:45;;;;;;;5.28;2.22;;;2.50;99.90;;;;;;20753613;28;20025;-75
2022/02/05 08:27:46;;;;;;;6.32;2.75;;;2.50;99.90;;;;;;20745869;28;20036;-76
2022/02/05 08:37:48;;;;;;;4.97;2.00;;;2.70;99.90;;;;;;20789737;28;20087;-76
2022/02/05 08:47:49;;;;;;;5.22;1.85;;;3.80;99.90;;;;;;20803913;28;20381;-76
2022/02/05 08:57:52;;;;;;;;;;;4.50;99.90;;;;;;20752435;28;20026;-76
2022/02/05 09:07:52;;;;;;;;;;;4.80;99.90;;;;;;20718789;28;20441;-76
2022/02/05 09:17:53;;;;;;;5.78;2.35;;;5.40;99.90;;;;;;20710712;28;19953;-76
2022/02/05 09:27:54;;;;;;;8.25;3.55;;;4.90;99.90;;;;;;20706627;28;20110;-76
2022/02/05 09:37:55;;;;;;;6.82;2.72;;;5.50;99.90;;;;;;20800777;28;20029;-74
2022/02/05 09:47:56;;;;;;;2.97;1.52;;;5.60;99.90;;;;;;20754380;28;20030;-76
2022/02/05 09:57:57;;;;;;;4.05;1.52;;;5.60;99.90;;;;;;20746562;28;20036;-76
2022/02/05 10:08:09;;;;;;;5.77;2.10;;;6.00;99.90;;;;;;20740901;28;20030;-76
2022/02/05 10:18:32;;;;;;;6.95;1.60;;;6.30;99.90;;;;;;20733592;28;20291;-76
2022/02/05 10:28:33;;;;;;;6.38;1.60;;;6.60;99.90;;;;;;20741931;28;20514;-76
2022/02/05 10:48:46;;;;;;;6.43;2.03;;;7.00;99.90;;;;;;20778559;28;20787;-75
2022/02/05 11:08:56;;;;;;;4.03;1.73;;;7.10;99.90;;;;;;20747225;28;20281;-76
2022/02/05 11:18:59;;;;;;;3.20;1.37;;;7.50;99.90;;;;;;20728375;28;20050;-76
2022/02/05 11:29:06;;;;;;;3.95;1.30;;;7.70;99.90;;;;;;20775210;28;20037;-75
2022/02/05 11:39:09;;;;;;;7.93;1.40;;;7.20;99.90;;;;;;20802687;28;20030;-77
2022/02/05 11:49:10;;;;;;;7.55;1.40;;;7.80;99.90;;;;;;20767691;28;20040;-77
2022/02/05 11:59:11;;;;;;;4.53;1.47;;;8.50;99.90;;;;;;20766042;28;20021;-74
2022/02/05 12:09:33;;;;;;;3.93;1.30;;;6.90;99.90;;;;;;20786716;28;20026;-76
2022/02/05 12:19:58;;;;;;;2.10;1.20;;;9.90;99.90;;;;;;20769192;28;20061;-76
2022/02/05 12:30:38;;;;;;;7.13;1.35;;;9.30;99.90;;;;;;20787598;28;20052;-76
2022/02/05 12:40:48;;;;;;;2.75;1.10;;;9.90;99.90;;;;;;20711782;23;20408;-76
2022/02/05 12:50:49;;;;;;;4.63;1.27;;;9.60;99.90;;;;;;20684861;28;20034;-76
2022/02/05 13:01:05;;;;;;;4.68;1.23;;;9.90;99.90;;;;;;20690942;28;20511;-75
2022/02/05 13:11:06;;;;;;;6.40;1.60;;;11.50;99.90;;;;;;20701138;28;20053;-74
2022/02/05 13:41:55;;;;;;;4.85;1.80;;;8.60;99.90;;;;;;20664498;28;20061;-75
2022/02/05 13:52:09;;;;;;;8.43;1.38;;;8.80;99.90;;;;;;20631165;28;20500;-75
2022/02/05 14:02:19;;;;;;;4.07;1.20;;;8.60;99.90;;;;;;20663820;28;20039;-75
2022/02/05 14:12:20;;;;;;;2.80;1.08;;;8.70;99.90;;;;;;20645871;28;20046;-75
2022/02/05 14:22:25;;;;;;;9.93;2.60;;;8.60;99.90;;;;;;20662811;28;20501;-75
2022/02/05 14:32:42;;;;;;;4.95;1.15;;;9.10;99.90;;;;;;20662270;28;20041;-75
2022/02/05 14:42:43;;;;;;;4.50;1.38;;;8.80;99.90;;;;;;20661898;28;20076;-75
2022/02/05 14:52:44;;;;;;;2.90;1.00;;;9.00;99.90;;;;;;20702503;28;20038;-75
2022/02/05 15:02:45;;;;;;;4.50;1.27;;;8.60;99.90;;;;;;20693596;28;20096;-75
2022/02/05 15:12:46;;;;;;;9.47;2.57;;;8.60;99.90;;;;;;20676077;28;20026;-74
2022/02/05 15:22:49;;;;;;;3.90;1.47;;;9.00;99.90;;;;;;20686092;28;20512;-74
2022/02/05 15:32:50;;;;;;;4.95;1.17;;;9.50;99.90;;;;;;20655845;28;20145;-75
2022/02/05 15:53:11;;;;;;;8.07;1.63;;;9.70;99.90;;;;;;20682783;28;20031;-76
2022/02/05 16:03:12;;;;;;;;;;;9.10;99.90;;;;;;20653474;28;20038;-76
2022/02/05 16:13:13;;;;;;;8.55;1.67;;;8.70;99.90;;;;;;20658580;28;19924;-76
2022/02/05 16:23:14;;;;;;;4.57;1.67;;;7.60;99.90;;;;;;20655796;28;20035;-75
2022/02/05 16:33:18;;;;;;;15.03;4.03;;;6.80;99.90;;;;;;20671991;28;20042;-75
2022/02/05 16:43:19;;;;;;;11.15;2.55;;;6.50;99.90;;;;;;20688030;28;20571;-75
2022/02/05 16:53:20;;;;;;;14.00;3.70;;;6.10;99.90;;;;;;20687440;28;20038;-77
2022/02/05 17:03:21;;;;;;;3.67;2.23;;;5.90;99.90;;;;;;20681125;28;20034;-76
2022/02/05 17:13:22;;;;;;;3.03;1.80;;;5.70;99.90;;;;;;20653587;28;20030;-76
2022/02/05 17:23:28;;;;;;;10.20;2.05;;;5.40;99.90;;;;;;20618952;28;20053;-76
2022/02/05 17:33:30;;;;;;;7.82;1.63;;;5.10;99.90;;;;;;20601980;28;20035;-75
2022/02/05 17:43:32;;;;;;;;;;;4.90;99.90;;;;;;20658151;28;20042;-76
2022/02/05 17:53:35;;;;;;;10.73;2.70;;;4.70;99.90;;;;;;20702835;28;19917;-77
2022/02/05 18:03:45;;;;;;;13.57;2.78;;;4.40;99.90;;;;;;20744438;28;20038;-77
2022/02/05 18:23:54;;;;;;;4.18;2.15;;;3.40;99.90;;;;;;20662166;28;20038;-77
2022/02/05 18:33:55;;;;;;;9.48;2.08;;;3.40;99.90;;;;;;20681931;23;20054;-77
2022/02/05 18:43:59;;;;;;;;;;;3.20;99.90;;;;;;20750934;28;20044;-77
2022/02/05 18:54:00;;;;;;;9.48;2.53;;;3.40;99.90;;;;;;20746023;28;19931;-76
2022/02/05 19:14:25;;;;;;;6.93;2.05;;;3.40;99.90;;;;;;20699556;28;19909;-76
2022/02/05 19:24:26;;;;;;;13.27;2.97;;;3.40;99.90;;;;;;20699973;28;20038;-75
2022/02/05 19:34:26;;;;;;;;;;;3.30;99.90;;;;;;20697705;28;20038;-76
2022/02/05 19:44:37;;;;;;;11.60;3.10;;;3.20;99.90;;;;;;20717065;28;19922;-76
2022/02/05 19:54:38;;;;;;;5.07;2.67;;;3.00;99.90;;;;;;20712569;28;20026;-77
2022/02/05 20:14:59;;;;;;;11.35;2.78;;;2.50;99.90;;;;;;20752877;28;19917;-76
2022/02/05 20:25:00;;;;;;;8.50;3.03;;;2.40;99.90;;;;;;20751413;28;20038;-76
2022/02/05 20:35:01;;;;;;;4.80;2.42;;;2.20;99.90;;;;;;20751283;28;20026;-74
2022/02/05 20:45:03;;;;;;;5.65;2.00;;;2.00;99.90;;;;;;20742131;28;20048;-74
2022/02/05 20:55:07;;;;;;;8.68;2.25;;;1.60;99.90;;;;;;20688067;28;20058;-75
2022/02/05 21:05:09;;;;;;;5.63;2.25;;;1.70;99.90;;;;;;20719901;28;20073;-74
2022/02/05 21:15:10;;;;;;;7.95;4.15;;;1.40;99.90;;;;;;20749439;28;20500;-76
2022/02/05 21:25:12;;;;;;;11.48;4.32;;;1.60;99.90;;;;;;20747450;28;20520;-76
2022/02/05 21:35:16;;;;;;;5.90;2.35;;;1.40;99.90;;;;;;20741302;28;20404;-74
2022/02/05 21:45:17;;;;;;;8.68;2.40;;;1.10;99.90;;;;;;20746889;28;20508;-75
2022/02/05 21:55:31;;;;;;;8.50;3.00;;;0.70;99.90;;;;;;20726636;28;20053;-76
2022/02/05 22:05:32;;;;;;;8.65;3.33;;;0.80;99.90;;;;;;20744557;28;20045;-75
2022/02/05 22:15:33;;;;;;;11.07;3.53;;;1.00;99.90;;;;;;20744753;28;20476;-75
2022/02/05 22:25:34;;;;;;;11.30;4.28;;;0.80;99.90;;;;;;20744667;28;20049;-76
2022/02/05 22:35:35;;;;;;;16.75;4.60;;;0.80;99.90;;;;;;20746640;28;20034;-76
2022/02/05 22:45:36;;;;;;;15.63;5.40;;;0.90;99.90;;;;;;20745052;28;20034;-76
2022/02/05 22:55:37;;;;;;;17.83;5.90;;;0.70;99.90;;;;;;20743298;28;20049;-76
2022/02/05 23:05:38;;;;;;;14.60;5.93;;;0.90;99.90;;;;;;20725101;28;20030;-76
2022/02/05 23:46:32;;;;;;;13.40;6.50;;;0.50;99.90;;;;;;20838041;28;20064;-76
2022/02/05 23:56:33;;;;;;;13.80;5.88;;;0.50;99.90;;;;;;20837210;28;20033;-76
